Time;durP1;ratioP1;P1;durP2;ratioP2;P2;SDS_P1;SDS_P2;PMS_P1;PMS_P2;Temp;Humidity;BMP_temperature;BMP_pressure;BME280_temperature;BME280_humidity;BME280_pressure;Samples;Min_cycle;Max_cycle;Signal;HPM_P1;HPM_P2
2021/03/19 00:00:19;;;;;;;27.00;10.85;;;4.90;1.00;;;;;;5073117;28;20202;-75
2021/03/19 00:02:45;;;;;;;22.23;8.98;;;;;;;;;;5074222;28;20156;-75
2021/03/19 00:05:14;;;;;;;21.17;8.90;;;5.00;1.00;;;;;;5074043;28;20163;-75
2021/03/19 00:07:48;;;;;;;23.10;10.10;;;5.00;1.00;;;;;;5073862;28;20408;-75
2021/03/19 00:10:18;;;;;;;21.15;10.75;;;5.00;1.00;;;;;;5070613;28;20201;-75
2021/03/19 00:12:47;;;;;;;25.55;9.57;;;4.90;1.00;;;;;;5074280;28;20239;-75
2021/03/19 00:15:14;;;;;;;21.15;8.82;;;4.90;1.00;;;;;;5073637;28;20210;-76
2021/03/19 00:17:40;;;;;;;42.80;11.35;;;;;;;;;;5069151;28;20184;-76
2021/03/19 00:20:08;;;;;;;26.20;10.95;;;4.90;1.00;;;;;;5057953;28;20191;-76
2021/03/19 00:22:35;;;;;;;27.73;10.60;;;4.90;1.00;;;;;;5052588;28;20267;-76
2021/03/19 00:25:01;;;;;;;25.13;10.10;;;;;;;;;;5053719;28;20623;-76
2021/03/19 00:27:27;;;;;;;25.33;11.48;;;;;;;;;;5053484;28;20650;-76
2021/03/19 00:29:53;;;;;;;25.98;10.73;;;;;;;;;;5066180;28;20518;-76
2021/03/19 00:32:19;;;;;;;27.98;10.20;;;;;;;;;;5073656;28;20610;-76
2021/03/19 00:34:45;;;;;;;24.23;9.90;;;4.90;1.00;;;;;;5073529;28;20182;-76
2021/03/19 00:37:11;;;;;;;24.97;9.40;;;;;;;;;;5073488;28;20556;-76
2021/03/19 00:39:37;;;;;;;31.67;10.83;;;;;;;;;;5073407;28;20187;-76
2021/03/19 00:42:03;;;;;;;28.65;11.48;;;4.80;1.00;;;;;;5072072;28;20884;-76
2021/03/19 00:44:29;;;;;;;24.23;11.20;;;;;;;;;;5072949;28;20550;-75
2021/03/19 00:46:55;;;;;;;25.70;10.30;;;;;;;;;;5073336;28;20156;-75
2021/03/19 00:49:22;;;;;;;28.08;10.15;;;;;;;;;;5073121;28;20425;-75
2021/03/19 00:51:48;;;;;;;21.75;10.15;;;;;;;;;;5059520;28;20172;-75
2021/03/19 00:54:14;;;;;;;24.70;11.45;;;;;;;;;;5053436;28;20166;-75
2021/03/19 00:56:40;;;;;;;23.20;11.43;;;;;;;;;;5053198;28;20270;-75
2021/03/19 00:59:06;;;;;;;25.63;10.70;;;;;;;;;;5063507;28;20406;-75
2021/03/19 01:01:32;;;;;;;24.27;11.27;;;;;;;;;;5073196;28;20174;-76
2021/03/19 01:03:58;;;;;;;24.83;11.38;;;;;;;;;;5073387;28;20166;-76
2021/03/19 01:06:24;;;;;;;25.40;10.50;;;;;;;;;;5073474;28;20155;-76
2021/03/19 01:08:50;;;;;;;23.70;11.77;;;;;;;;;;5072754;28;20904;-76
2021/03/19 01:11:16;;;;;;;24.70;10.83;;;;;;;;;;5072969;28;20382;-76
2021/03/19 01:13:42;;;;;;;16.00;9.17;;;;;;;;;;5073059;28;20460;-75
2021/03/19 01:16:08;;;;;;;31.87;11.10;;;;;;;;;;5072944;28;20894;-75
2021/03/19 01:18:35;;;;;;;29.77;10.83;;;;;;;;;;5072267;28;20428;-75
2021/03/19 01:21:01;;;;;;;25.40;10.82;;;;;;;;;;5071113;28;20428;-75
2021/03/19 01:23:27;;;;;;;16.87;9.73;;;;;;;;;;5072754;28;20187;-75
2021/03/19 01:25:54;;;;;;;23.17;9.85;;;;;;;;;;5072530;28;20386;-75
2021/03/19 01:28:20;;;;;;;25.85;11.82;;;;;;;;;;5072019;28;20213;-75
2021/03/19 01:30:46;;;;;;;24.57;10.50;;;;;;;;;;5071845;28;20171;-75
2021/03/19 01:33:12;;;;;;;25.25;10.25;;;;;;;;;;5072871;28;20382;-76
2021/03/19 01:35:40;;;;;;;22.08;9.20;;;4.60;1.00;;;;;;5072950;28;20191;-76
2021/03/19 01:38:07;;;;;;;26.83;12.32;;;4.70;1.00;;;;;;5072678;28;20502;-76
2021/03/19 01:40:39;;;;;;;25.05;10.02;;;4.50;1.00;;;;;;5072913;28;20239;-76
2021/03/19 01:43:14;;;;;;;23.20;9.77;;;4.40;1.00;;;;;;5064412;28;20265;-76
2021/03/19 01:46:04;;;;;;;27.77;12.52;;;4.30;1.00;;;;;;5052285;28;20540;-75
2021/03/19 01:49:07;;;;;;;25.92;10.15;;;4.30;1.00;;;;;;5070511;28;20570;-75
2021/03/19 01:52:11;;;;;;;20.73;9.00;;;4.20;1.00;;;;;;5072618;28;20559;-75
2021/03/19 01:55:14;;;;;;;22.50;10.00;;;4.20;1.00;;;;;;5092832;28;20159;-75
2021/03/19 01:58:17;;;;;;;27.65;10.75;;;4.20;1.00;;;;;;5085098;28;20224;-75
2021/03/19 02:01:20;;;;;;;27.15;10.93;;;4.10;1.00;;;;;;5072917;28;20183;-75
2021/03/19 02:04:23;;;;;;;23.42;10.65;;;4.10;1.00;;;;;;5073553;28;20155;-75
2021/03/19 02:07:42;;;;;;;17.48;7.72;;;4.00;1.00;;;;;;5076382;28;20163;-76
2021/03/19 02:10:45;;;;;;;23.98;9.20;;;4.00;1.00;;;;;;5054179;28;20623;-76
2021/03/19 02:13:51;;;;;;;21.98;10.73;;;4.10;1.00;;;;;;5053724;28;20202;-76
2021/03/19 02:16:53;;;;;;;28.45;11.15;;;4.20;1.00;;;;;;5053780;28;20230;-76
2021/03/19 02:19:56;;;;;;;23.02;9.43;;;4.10;1.00;;;;;;5053625;28;20167;-76
2021/03/19 02:23:00;;;;;;;23.55;8.95;;;4.00;1.00;;;;;;5041355;28;20643;-76
2021/03/19 02:26:02;;;;;;;23.88;10.07;;;4.10;1.00;;;;;;5033705;28;20188;-76
2021/03/19 02:29:06;;;;;;;20.00;8.38;;;4.10;1.00;;;;;;5034893;28;20191;-76
2021/03/19 02:32:00;;;;;;;28.45;10.52;;;4.10;1.00;;;;;;5033724;28;20188;-75
2021/03/19 02:34:38;;;;;;;23.50;10.32;;;4.00;1.00;;;;;;5014715;28;20855;-75
2021/03/19 02:37:07;;;;;;;25.10;10.65;;;4.10;1.00;;;;;;5023553;28;20197;-75
2021/03/19 02:39:33;;;;;;;25.98;11.52;;;;;;;;;;5013841;28;20633;-75
2021/03/19 02:42:00;;;;;;;23.20;10.17;;;;;;;;;;5012188;28;20180;-75
2021/03/19 02:44:26;;;;;;;31.67;12.07;;;;;;;;;;5028664;28;20469;-75
2021/03/19 02:46:52;;;;;;;23.97;11.97;;;;;;;;;;5033384;28;20337;-76
2021/03/19 02:49:18;;;;;;;28.73;11.30;;;3.90;1.00;;;;;;5033129;28;20871;-76
2021/03/19 02:51:44;;;;;;;24.87;12.27;;;;;;;;;;5033073;28;20176;-76
2021/03/19 02:54:10;;;;;;;24.58;11.32;;;3.90;1.00;;;;;;5033044;28;20866;-76
2021/03/19 02:56:36;;;;;;;41.03;13.23;;;4.00;1.00;;;;;;5033032;28;20219;-76
2021/03/19 02:59:02;;;;;;;32.17;12.70;;;;;;;;;;5033209;28;20192;-76
2021/03/19 03:01:28;;;;;;;32.40;13.70;;;;;;;;;;5033635;28;20620;-76
2021/03/19 03:03:54;;;;;;;26.92;12.15;;;;;;;;;;5033232;28;20208;-76
2021/03/19 03:06:20;;;;;;;26.27;11.40;;;;;;;;;;5032827;28;20172;-76
2021/03/19 03:08:46;;;;;;;29.92;11.57;;;3.80;1.00;;;;;;5033124;28;20406;-76
2021/03/19 03:11:12;;;;;;;22.90;11.30;;;3.80;1.00;;;;;;5043702;28;20188;-76
2021/03/19 03:13:38;;;;;;;28.20;12.13;;;;;;;;;;5055200;28;20171;-76
2021/03/19 03:16:04;;;;;;;22.87;10.77;;;3.80;1.00;;;;;;5055103;28;20263;-75
2021/03/19 03:18:31;;;;;;;25.42;11.15;;;;;;;;;;5055068;28;20387;-75
2021/03/19 03:20:58;;;;;;;25.90;11.45;;;3.80;1.00;;;;;;5061066;28;20257;-75
2021/03/19 03:23:25;;;;;;;39.63;15.07;;;3.80;1.00;;;;;;5055769;28;20192;-75
2021/03/19 03:25:52;;;;;;;24.88;10.73;;;3.80;1.00;;;;;;5054917;28;20176;-75
2021/03/19 03:28:18;;;;;;;23.58;11.00;;;;;;;;;;5054879;28;20164;-76
2021/03/19 03:30:50;;;;;;;24.73;10.73;;;3.70;1.00;;;;;;5055281;28;20222;-75
2021/03/19 03:33:16;;;;;;;27.88;10.70;;;;;;;;;;5054714;28;20168;-76
2021/03/19 03:35:43;;;;;;;24.13;10.85;;;3.40;1.00;;;;;;5066674;28;20203;-76
2021/03/19 03:38:16;;;;;;;23.13;10.30;;;3.40;1.00;;;;;;5075049;28;20198;-76
2021/03/19 03:40:44;;;;;;;35.17;12.25;;;3.40;1.00;;;;;;5074047;28;20250;-76
2021/03/19 03:43:15;;;;;;;33.20;11.10;;;3.50;1.00;;;;;;5074525;28;20522;-76
2021/03/19 03:45:41;;;;;;;31.50;11.52;;;3.50;1.00;;;;;;5073417;28;20174;-75
2021/03/19 03:48:10;;;;;;;39.53;11.98;;;3.50;1.00;;;;;;5074321;28;20578;-75
2021/03/19 03:50:36;;;;;;;20.27;9.30;;;3.60;1.00;;;;;;5074443;28;20182;-76
2021/03/19 03:53:02;;;;;;;30.40;10.55;;;3.70;1.00;;;;;;5074454;28;20167;-76
2021/03/19 03:55:28;;;;;;;24.52;10.18;;;;;;;;;;5073840;28;20218;-76
2021/03/19 03:57:54;;;;;;;23.53;10.40;;;;;;;;;;5072999;28;20167;-76
2021/03/19 04:00:23;;;;;;;33.33;11.20;;;3.50;1.00;;;;;;5074747;28;20815;-75
2021/03/19 04:02:50;;;;;;;27.05;10.75;;;3.50;1.00;;;;;;5074052;28;20397;-75
2021/03/19 04:05:29;;;;;;;28.55;11.65;;;3.60;1.00;;;;;;5073736;28;20623;-75
2021/03/19 04:07:55;;;;;;;28.83;10.90;;;;;;;;;;5073752;28;20182;-75
2021/03/19 04:10:23;;;;;;;23.83;10.50;;;3.60;1.00;;;;;;5074222;28;20244;-75
2021/03/19 04:12:49;;;;;;;27.17;9.90;;;3.50;1.00;;;;;;5073987;28;20160;-75
2021/03/19 04:15:16;;;;;;;23.90;11.02;;;3.50;1.00;;;;;;5074168;28;20201;-77
2021/03/19 04:17:44;;;;;;;23.80;10.25;;;3.40;1.00;;;;;;5073858;28;20187;-76
2021/03/19 04:20:11;;;;;;;21.75;8.70;;;3.40;1.00;;;;;;5073944;28;20159;-76
2021/03/19 04:22:37;;;;;;;30.33;9.10;;;;;;;;;;5070244;28;20186;-76
2021/03/19 04:25:03;;;;;;;21.05;8.40;;;3.30;1.00;;;;;;5063617;28;20183;-75
2021/03/19 04:27:31;;;;;;;18.17;8.93;;;3.50;1.00;;;;;;5083050;28;20182;-76
2021/03/19 04:30:00;;;;;;;23.98;8.55;;;3.50;1.00;;;;;;5091305;28;20151;-75
2021/03/19 04:32:26;;;;;;;16.67;7.82;;;;;;;;;;5069041;28;20224;-75
2021/03/19 04:34:53;;;;;;;25.02;9.20;;;3.40;1.00;;;;;;5058489;28;20186;-75
2021/03/19 04:37:19;;;;;;;29.33;8.95;;;;;;;;;;5072219;28;20236;-75
2021/03/19 04:39:47;;;;;;;24.60;9.80;;;3.40;1.00;;;;;;5053647;28;20164;-75
2021/03/19 04:42:13;;;;;;;21.08;8.32;;;;;;;;;;5053265;28;20643;-75
2021/03/19 04:44:43;;;;;;;23.38;9.70;;;3.40;1.00;;;;;;5053416;28;20169;-75
2021/03/19 04:47:09;;;;;;;26.70;8.77;;;;;;;;;;5053650;28;20167;-75
2021/03/19 04:49:35;;;;;;;19.67;9.43;;;3.20;1.00;;;;;;5053417;28;20160;-75
2021/03/19 04:52:02;;;;;;;24.75;8.82;;;;;;;;;;5053478;28;20164;-75
2021/03/19 04:54:28;;;;;;;22.88;8.38;;;3.30;1.00;;;;;;5072011;28;20547;-76
2021/03/19 04:56:54;;;;;;;14.80;6.25;;;;;;;;;;5073321;28;20268;-76
2021/03/19 04:59:21;;;;;;;31.42;9.25;;;;;;;;;;5073266;28;20205;-76
2021/03/19 05:01:51;;;;;;;24.17;7.05;;;3.30;1.00;;;;;;5073447;28;20151;-75
2021/03/19 05:04:18;;;;;;;19.75;8.02;;;3.10;1.00;;;;;;5073159;28;20167;-75
2021/03/19 05:06:44;;;;;;;18.80;7.53;;;;;;;;;;5073115;28;20166;-75
2021/03/19 05:09:11;;;;;;;20.55;7.10;;;2.90;1.00;;;;;;5071411;28;20570;-76
2021/03/19 05:11:37;;;;;;;16.17;6.38;;;;;;;;;;5073259;28;20179;-76
2021/03/19 05:14:03;;;;;;;17.33;7.47;;;2.80;1.00;;;;;;5071464;28;20187;-76
2021/03/19 05:16:30;;;;;;;24.85;8.23;;;;;;;;;;5073167;28;20247;-75
2021/03/19 05:18:55;;;;;;;18.88;7.38;;;2.70;1.00;;;;;;5072991;28;20163;-75
2021/03/19 05:21:21;;;;;;;15.27;6.47;;;;;;;;;;5072651;28;20159;-76
2021/03/19 05:23:47;;;;;;;14.85;6.50;;;2.70;1.00;;;;;;5068540;28;20182;-76
2021/03/19 05:26:13;;;;;;;19.83;7.00;;;;;;;;;;5072191;28;20187;-76
2021/03/19 05:28:39;;;;;;;12.38;5.30;;;;;;;;;;5072844;28;20390;-76
2021/03/19 05:31:06;;;;;;;14.30;6.53;;;2.30;1.00;;;;;;5073018;28;20167;-75
2021/03/19 05:33:47;;;;;;;11.40;4.90;;;2.30;1.00;;;;;;5072886;28;20297;-76
2021/03/19 05:36:15;;;;;;;23.63;7.35;;;2.20;1.00;;;;;;5072636;28;20203;-76
2021/03/19 05:38:41;;;;;;;20.60;7.45;;;2.30;1.00;;;;;;5054321;28;20188;-76
2021/03/19 05:41:08;;;;;;;16.23;6.50;;;2.30;1.00;;;;;;5056994;28;20182;-76
2021/03/19 05:43:43;;;;;;;16.70;5.90;;;2.30;1.00;;;;;;5056986;28;20183;-76
2021/03/19 05:46:16;;;;;;;9.40;4.28;;;2.20;1.00;;;;;;5057047;28;20661;-76
2021/03/19 05:48:49;;;;;;;16.25;6.55;;;2.30;1.00;;;;;;5056853;28;20167;-76
2021/03/19 05:51:38;;;;;;;8.05;3.55;;;2.30;1.00;;;;;;5057952;28;20159;-76
2021/03/19 05:54:29;;;;;;;13.77;5.72;;;2.20;1.00;;;;;;5077001;28;20163;-76
2021/03/19 05:57:03;;;;;;;8.68;4.25;;;2.20;1.00;;;;;;5076642;28;20187;-76
2021/03/19 05:59:49;;;;;;;17.15;6.60;;;2.30;1.00;;;;;;5076204;28;20291;-76
2021/03/19 06:02:23;;;;;;;16.58;6.05;;;2.20;1.00;;;;;;5077091;28;20489;-75
2021/03/19 06:05:06;;;;;;;11.25;5.32;;;2.20;1.00;;;;;;5074749;28;20187;-76
2021/03/19 06:07:44;;;;;;;20.98;6.93;;;2.20;1.00;;;;;;5076552;28;20170;-76
2021/03/19 06:10:35;;;;;;;15.68;6.05;;;2.20;1.00;;;;;;5076405;28;20184;-76
2021/03/19 06:13:04;;;;;;;16.65;5.75;;;2.20;1.00;;;;;;5076319;28;20563;-82
2021/03/19 06:15:41;;;;;;;20.42;6.72;;;2.30;1.00;;;;;;5074977;28;20293;-82
2021/03/19 06:18:35;;;;;;;17.98;6.18;;;2.40;1.00;;;;;;5075552;28;20181;-82
2021/03/19 06:21:20;;;;;;;9.60;4.45;;;2.40;1.00;;;;;;5070208;28;20195;-84
2021/03/19 06:24:04;;;;;;;12.48;4.88;;;2.40;1.00;;;;;;5075064;28;20229;-82
2021/03/19 06:26:39;;;;;;;10.55;5.85;;;2.40;1.00;;;;;;5087575;28;20237;-83
2021/03/19 06:29:27;;;;;;;14.35;5.80;;;2.40;1.00;;;;;;5075262;28;20216;-82
2021/03/19 06:32:14;;;;;;;24.00;7.65;;;2.50;1.00;;;;;;5065061;28;20175;-83
2021/03/19 06:34:59;;;;;;;10.55;4.95;;;2.50;1.00;;;;;;5075799;28;20179;-77
2021/03/19 06:37:32;;;;;;;14.52;7.00;;;2.60;1.00;;;;;;5075949;28;20155;-76
2021/03/19 06:39:58;;;;;;;15.38;5.57;;;;;;;;;;5069767;28;20677;-76
2021/03/19 06:42:24;;;;;;;7.07;4.53;;;;;;;;;;5067199;28;20175;-77
2021/03/19 06:45:11;;;;;;;20.57;6.80;;;2.70;1.00;;;;;;5061977;28;20644;-76
2021/03/19 06:47:41;;;;;;;9.70;5.63;;;2.80;1.00;;;;;;5075464;28;20503;-75
2021/03/19 06:50:31;;;;;;;12.43;5.88;;;2.70;1.00;;;;;;5074624;28;20183;-75
2021/03/19 06:53:17;;;;;;;12.98;5.68;;;2.80;1.00;;;;;;5075821;28;20309;-83
2021/03/19 06:55:46;;;;;;;13.75;6.57;;;2.80;1.00;;;;;;5074657;28;20567;-82
2021/03/19 06:58:12;;;;;;;15.18;6.28;;;;;;;;;;5075572;28;20186;-83
2021/03/19 07:00:46;;;;;;;22.88;5.50;;;2.90;1.00;;;;;;5075608;28;20216;-83
2021/03/19 07:03:26;;;;;;;23.38;7.18;;;2.90;1.00;;;;;;5075159;28;20199;-79
2021/03/19 07:06:19;;;;;;;11.95;5.40;;;2.90;1.00;;;;;;5075596;28;20522;-79
2021/03/19 07:09:08;;;;;;;17.05;6.63;;;2.90;1.00;;;;;;5060808;28;20171;-75
2021/03/19 07:11:34;;;;;;;15.13;6.72;;;;;;;;;;5075078;28;20190;-75
2021/03/19 07:14:22;;;;;;;13.63;6.07;;;2.90;1.00;;;;;;5075041;28;20519;-75
2021/03/19 07:17:15;;;;;;;13.20;5.72;;;3.10;1.00;;;;;;5013301;28;20459;-75
2021/03/19 07:20:08;;;;;;;16.45;6.55;;;3.20;1.00;;;;;;5013194;28;20205;-75
2021/03/19 07:22:45;;;;;;;13.25;5.80;;;3.40;1.00;;;;;;5012856;28;20173;-75
2021/03/19 07:25:28;;;;;;;17.38;7.57;;;3.60;1.00;;;;;;5011422;28;20188;-75
2021/03/19 07:28:15;;;;;;;8.68;4.93;;;3.70;1.00;;;;;;5022208;28;20278;-76
2021/03/19 07:30:49;;;;;;;20.38;6.85;;;3.80;1.00;;;;;;5032581;28;20190;-75
2021/03/19 07:33:36;;;;;;;20.67;7.43;;;4.00;1.00;;;;;;5030766;28;20218;-75
2021/03/19 07:36:47;;;;;;;15.25;5.70;;;4.20;1.00;;;;;;5012608;28;20243;-75
2021/03/19 07:39:36;;;;;;;13.70;6.53;;;4.20;1.00;;;;;;5012806;28;20177;-75
2021/03/19 07:42:27;;;;;;;16.80;6.22;;;4.50;1.00;;;;;;5012416;28;20215;-76
2021/03/19 07:45:06;;;;;;;9.13;4.30;;;4.60;1.00;;;;;;4971895;28;20198;-75
2021/03/19 07:48:02;;;;;;;9.77;4.88;;;4.80;1.00;;;;;;4973743;28;20186;-75
2021/03/19 07:50:55;;;;;;;11.30;5.35;;;4.80;1.00;;;;;;4974353;28;20654;-75
2021/03/19 07:53:38;;;;;;;15.85;6.20;;;4.90;1.00;;;;;;4989891;28;20199;-75
2021/03/19 07:56:15;;;;;;;8.25;4.20;;;4.80;1.00;;;;;;5020829;28;20208;-75
2021/03/19 07:58:58;;;;;;;15.80;5.97;;;4.80;1.00;;;;;;5017022;28;20173;-74
2021/03/19 08:01:39;;;;;;;12.05;6.03;;;4.70;1.00;;;;;;5031046;28;20161;-75
2021/03/19 08:04:23;;;;;;;10.63;5.78;;;4.80;1.00;;;;;;5032008;28;20249;-75
2021/03/19 08:06:53;;;;;;;14.68;5.57;;;4.80;1.00;;;;;;5031961;28;20168;-75
2021/03/19 08:09:44;;;;;;;13.85;5.65;;;4.80;1.00;;;;;;5031805;28;20697;-76
2021/03/19 08:12:25;;;;;;;18.92;6.03;;;4.90;1.00;;;;;;5031983;28;20191;-76
2021/03/19 08:15:14;;;;;;;13.77;5.25;;;4.90;1.00;;;;;;5031770;28;20556;-76
2021/03/19 08:18:07;;;;;;;14.80;6.03;;;5.00;1.00;;;;;;5031109;28;20189;-75
2021/03/19 08:20:48;;;;;;;18.73;7.45;;;4.90;1.00;;;;;;5031376;28;20207;-75
2021/03/19 08:23:43;;;;;;;21.25;7.80;;;5.10;1.00;;;;;;5072368;28;20159;-75
2021/03/19 08:26:18;;;;;;;24.23;7.05;;;5.20;1.00;;;;;;5060539;28;20677;-75
2021/03/19 08:28:55;;;;;;;18.77;7.90;;;5.10;1.00;;;;;;5054614;28;20221;-75
2021/03/19 08:31:47;;;;;;;22.73;7.28;;;5.20;1.00;;;;;;5055159;28;20516;-75
2021/03/19 08:34:27;;;;;;;9.65;4.57;;;5.00;1.00;;;;;;5053796;28;20210;-75
2021/03/19 08:36:54;;;;;;;12.32;5.95;;;5.20;1.00;;;;;;5053468;28;20585;-75
2021/03/19 08:39:23;;;;;;;17.30;7.30;;;5.10;1.00;;;;;;5053531;28;20158;-75
2021/03/19 08:41:53;;;;;;;17.52;7.60;;;5.30;1.00;;;;;;5068693;28;20186;-75
2021/03/19 08:44:34;;;;;;;12.68;5.70;;;5.40;1.00;;;;;;5073455;28;20194;-75
2021/03/19 08:47:28;;;;;;;13.13;6.20;;;5.60;1.00;;;;;;5070029;28;20178;-75
2021/03/19 08:49:58;;;;;;;17.08;7.32;;;5.60;1.00;;;;;;5076032;28;20273;-77
2021/03/19 08:52:35;;;;;;;11.17;5.70;;;5.50;1.00;;;;;;5077102;28;20206;-74
2021/03/19 08:55:13;;;;;;;15.93;6.00;;;5.10;1.00;;;;;;5053183;28;20398;-74
2021/03/19 08:58:19;;;;;;;10.13;4.72;;;5.20;1.00;;;;;;5053158;28;20152;-74
2021/03/19 09:00:50;;;;;;;13.57;7.18;;;5.20;1.00;;;;;;5053591;28;20232;-74
2021/03/19 09:03:42;;;;;;;25.33;7.32;;;5.40;1.00;;;;;;5054363;28;20183;-74
2021/03/19 09:06:08;;;;;;;12.95;5.38;;;5.50;1.00;;;;;;5013835;28;20185;-74
2021/03/19 09:08:55;;;;;;;17.43;7.30;;;5.70;1.00;;;;;;5030971;28;20192;-75
2021/03/19 09:11:59;;;;;;;13.20;6.00;;;5.80;1.00;;;;;;5009042;28;20454;-75
2021/03/19 09:14:41;;;;;;;12.73;6.07;;;5.90;1.00;;;;;;4991126;28;20408;-75
2021/03/19 09:17:13;;;;;;;16.63;7.17;;;6.00;1.00;;;;;;4990959;28;20460;-75
2021/03/19 09:20:04;;;;;;;10.67;5.20;;;5.70;1.00;;;;;;4989928;28;20642;-75
2021/03/19 09:22:39;;;;;;;10.70;5.90;;;5.90;1.00;;;;;;4985111;28;20428;-75
2021/03/19 09:25:11;;;;;;;12.67;6.40;;;5.90;1.00;;;;;;4997888;28;20514;-75
2021/03/19 09:28:00;;;;;;;12.23;5.77;;;5.80;1.00;;;;;;4989974;28;20436;-75
2021/03/19 09:30:33;;;;;;;13.63;6.50;;;5.80;1.00;;;;;;4990782;28;20431;-75
2021/03/19 09:33:01;;;;;;;11.82;6.03;;;;;;;;;;4975219;28;20446;-75
2021/03/19 09:35:42;;;;;;;11.87;6.00;;;;;;;;;;4990768;28;20650;-75
2021/03/19 09:38:22;;;;;;;12.60;6.50;;;6.00;1.00;;;;;;4989034;28;20419;-75
2021/03/19 09:40:57;;;;;;;10.87;4.03;;;5.90;1.00;;;;;;4978220;28;20452;-75
2021/03/19 09:43:43;;;;;;;9.63;5.40;;;5.70;1.00;;;;;;4978834;28;21030;-75
2021/03/19 09:46:32;;;;;;;13.87;5.63;;;5.80;1.00;;;;;;4971575;28;20409;-75
2021/03/19 09:49:22;;;;;;;11.05;4.70;;;5.90;1.00;;;;;;5000028;28;20444;-74
2021/03/19 09:51:48;;;;;;;10.40;6.00;;;5.90;1.00;;;;;;5010675;28;20158;-74
2021/03/19 09:54:19;;;;;;;9.57;4.87;;;5.90;1.00;;;;;;5017501;28;20449;-74
2021/03/19 09:56:45;;;;;;;14.10;5.27;;;;;;;;;;5033460;28;21027;-75
2021/03/19 09:59:28;;;;;;;9.43;5.40;;;5.40;1.00;;;;;;5050225;28;20540;-74
2021/03/19 10:01:54;;;;;;;8.55;3.70;;;;;;;;;;5050167;28;20413;-75
2021/03/19 10:04:37;;;;;;;8.00;4.50;;;5.20;1.00;;;;;;5050542;28;20160;-75
2021/03/19 10:07:14;;;;;;;8.30;4.03;;;5.40;1.00;;;;;;5063594;28;21056;-75
2021/03/19 10:09:49;;;;;;;7.20;3.83;;;5.50;1.00;;;;;;5088551;28;20182;-75
2021/03/19 10:12:28;;;;;;;10.30;4.85;;;5.40;1.00;;;;;;5083920;28;20182;-74
2021/03/19 10:14:56;;;;;;;11.20;4.85;;;5.20;1.00;;;;;;5072226;28;20697;-74
2021/03/19 10:17:33;;;;;;;11.50;5.53;;;5.20;1.00;;;;;;5072235;28;20238;-75
2021/03/19 10:20:33;;;;;;;10.33;4.53;;;5.30;1.00;;;;;;5088501;28;20244;-74
2021/03/19 10:23:08;;;;;;;17.05;4.50;;;5.50;1.00;;;;;;5029970;28;20441;-75
2021/03/19 10:25:40;;;;;;;8.13;4.47;;;5.70;1.00;;;;;;5026203;28;20200;-75
2021/03/19 10:28:07;;;;;;;8.27;4.63;;;;;;;;;;5018146;28;20290;-74
2021/03/19 10:30:33;;;;;;;11.63;4.43;;;;;;;;;;5030902;28;20430;-75
2021/03/19 10:33:30;;;;;;;7.00;4.40;;;5.80;1.00;;;;;;5013976;28;20461;-75
2021/03/19 10:36:15;;;;;;;5.57;3.80;;;5.80;1.00;;;;;;4955098;29;20466;-76
2021/03/19 10:38:48;;;;;;;6.93;3.47;;;5.90;1.00;;;;;;4955531;29;20543;-76
2021/03/19 10:41:28;;;;;;;7.93;4.07;;;5.90;1.00;;;;;;4955083;29;20796;-76
2021/03/19 10:44:09;;;;;;;7.70;4.30;;;6.30;1.00;;;;;;4955384;29;20438;-76
2021/03/19 10:46:59;;;;;;;8.43;4.23;;;6.20;1.00;;;;;;4955064;29;20410;-76
2021/03/19 10:49:43;;;;;;;8.77;3.90;;;6.20;1.00;;;;;;4955369;29;20950;-75
2021/03/19 10:52:25;;;;;;;6.87;3.80;;;6.20;1.00;;;;;;4954914;29;20414;-75
2021/03/19 10:54:51;;;;;;;8.60;4.43;;;;;;;;;;4955198;29;20402;-76
2021/03/19 10:57:36;;;;;;;5.67;3.60;;;6.10;1.00;;;;;;4955120;29;20419;-76
2021/03/19 11:00:22;;;;;;;7.80;3.87;;;6.30;1.00;;;;;;5013428;28;20420;-76
2021/03/19 11:03:02;;;;;;;10.37;4.40;;;6.30;1.00;;;;;;5013422;28;20782;-76
2021/03/19 11:05:28;;;;;;;6.50;3.30;;;;;;;;;;5013635;28;20419;-75
2021/03/19 11:07:54;;;;;;;5.53;3.20;;;;;;;;;;5013359;28;20636;-75
2021/03/19 11:10:25;;;;;;;5.80;3.40;;;6.00;1.00;;;;;;5013095;28;20420;-75
2021/03/19 11:12:57;;;;;;;6.03;3.27;;;6.20;1.00;;;;;;5047021;28;20409;-75
2021/03/19 11:15:38;;;;;;;6.53;3.80;;;6.40;1.00;;;;;;5075020;28;20931;-75
2021/03/19 11:18:25;;;;;;;5.00;2.87;;;6.70;1.00;;;;;;5074919;28;20389;-75
2021/03/19 11:20:53;;;;;;;12.03;3.43;;;6.80;1.00;;;;;;5075264;28;20722;-74
2021/03/19 11:23:35;;;;;;;5.90;3.77;;;7.10;1.00;;;;;;5074909;28;20417;-75
2021/03/19 11:26:22;;;;;;;4.77;2.77;;;7.10;1.00;;;;;;5074630;28;20390;-75
2021/03/19 11:28:48;;;;;;;5.47;3.47;;;;;;;;;;5074078;28;20421;-74
2021/03/19 11:31:27;;;;;;;7.97;3.20;;;7.50;1.00;;;;;;5070826;28;20520;-75
2021/03/19 11:34:11;;;;;;;6.20;4.27;;;;;;;;;;5075082;28;20389;-74
2021/03/19 11:37:08;;;;;;;5.80;3.37;;;7.50;1.00;;;;;;5072974;28;20546;-75
2021/03/19 11:39:42;;;;;;;7.77;3.77;;;8.00;1.00;;;;;;5092436;28;20507;-74
2021/03/19 11:42:12;;;;;;;5.97;3.63;;;8.30;1.00;;;;;;5073660;28;20413;-74
2021/03/19 11:44:38;;;;;;;6.33;3.50;;;;;;;;;;5073266;28;20420;-75
2021/03/19 11:47:25;;;;;;;7.77;3.77;;;8.10;1.00;;;;;;5074425;28;20401;-74
2021/03/19 11:50:03;;;;;;;5.60;3.87;;;7.80;1.00;;;;;;5074747;28;20419;-74
2021/03/19 11:52:29;;;;;;;9.13;3.90;;;;;;;;;;5074621;28;20472;-74
2021/03/19 11:54:55;;;;;;;9.23;3.27;;;;;;;;;;5094565;28;20723;-75
2021/03/19 11:57:21;;;;;;;5.60;3.60;;;;;;;;;;5094452;28;20863;-75
2021/03/19 11:59:48;;;;;;;4.90;3.20;;;7.70;1.00;;;;;;5094445;28;20442;-75
2021/03/19 12:02:36;;;;;;;5.57;3.20;;;7.80;1.00;;;;;;5094078;28;20416;-75
2021/03/19 12:05:02;;;;;;;5.30;3.40;;;;;;;;;;5094825;28;20392;-74
2021/03/19 12:07:28;;;;;;;3.00;2.60;;;;;;;;;;5094385;28;20384;-75
2021/03/19 12:09:54;;;;;;;3.80;2.43;;;;;;;;;;5087029;28;20450;-75
2021/03/19 12:12:24;;;;;;;5.60;3.27;;;7.50;1.00;;;;;;5074088;28;20401;-74
2021/03/19 12:14:50;;;;;;;6.60;3.70;;;;;;;;;;5073934;28;20394;-75
2021/03/19 12:17:17;;;;;;;5.17;3.20;;;;;;;;;;5073723;28;20437;-74
2021/03/19 12:19:43;;;;;;;5.50;3.23;;;;;;;;;;5074295;28;20433;-74
2021/03/19 12:22:10;;;;;;;8.13;3.20;;;;;;;;;;5073523;28;20473;-75
2021/03/19 12:24:36;;;;;;;5.47;2.60;;;;;;;;;;5073739;28;20792;-74
2021/03/19 12:27:02;;;;;;;7.33;3.20;;;;;;;;;;5073498;28;20472;-74
2021/03/19 12:29:28;;;;;;;3.50;3.07;;;7.00;1.00;;;;;;5073237;28;20455;-74
2021/03/19 12:31:55;;;;;;;3.37;2.13;;;7.30;1.00;;;;;;5071751;28;20831;-75
2021/03/19 12:34:21;;;;;;;3.43;2.07;;;;;;;;;;5072651;28;20179;-74
2021/03/19 12:36:47;;;;;;;5.27;2.73;;;7.80;1.00;;;;;;5073821;28;20446;-78
2021/03/19 12:39:13;;;;;;;3.90;2.70;;;;;;;;;;5073623;28;20401;-78
2021/03/19 12:41:39;;;;;;;4.30;2.87;;;;;;;;;;5073327;28;20424;-76
2021/03/19 12:44:05;;;;;;;3.57;2.50;;;;;;;;;;5070036;28;20429;-74
2021/03/19 12:46:31;;;;;;;3.03;2.63;;;;;;;;;;5073360;28;20393;-75
2021/03/19 12:48:57;;;;;;;1.77;1.67;;;;;;;;;;5071507;28;20413;-72
2021/03/19 12:51:23;;;;;;;3.67;2.80;;;7.50;1.00;;;;;;5073927;28;20402;-86
2021/03/19 12:53:49;;;;;;;7.07;3.60;;;;;;;;;;5073529;28;21204;-82
2021/03/19 12:56:15;;;;;;;4.60;2.77;;;;;;;;;;5069098;28;20278;-81
2021/03/19 12:58:41;;;;;;;5.13;2.57;;;;;;;;;;5071950;28;20417;-82
2021/03/19 13:01:07;;;;;;;2.70;2.00;;;;;;;;;;5073668;28;20417;-79
2021/03/19 13:03:34;;;;;;;3.17;2.33;;;;;;;;;;5060673;28;20471;-76
2021/03/19 13:06:00;;;;;;;3.13;2.23;;;;;;;;;;5073371;28;20401;-75
2021/03/19 13:08:26;;;;;;;2.97;2.10;;;;;;;;;;5070884;28;20467;-76
2021/03/19 13:10:51;;;;;;;6.00;2.63;;;7.30;1.00;;;;;;5065659;28;20927;-76
2021/03/19 13:13:17;;;;;;;4.30;2.50;;;;;;;;;;5064665;28;20430;-76
2021/03/19 13:15:45;;;;;;;3.00;2.70;;;7.80;1.00;;;;;;5065546;28;20286;-76
2021/03/19 13:18:12;;;;;;;2.30;2.10;;;8.00;1.00;;;;;;5069334;28;21013;-76
2021/03/19 13:20:38;;;;;;;5.43;2.97;;;7.90;1.00;;;;;;5068019;28;20446;-72
2021/03/19 13:23:06;;;;;;;3.33;2.10;;;7.70;1.00;;;;;;5061467;28;20498;-72
2021/03/19 13:25:34;;;;;;;3.73;2.00;;;7.70;1.00;;;;;;5072641;28;20163;-72
2021/03/19 13:28:00;;;;;;;2.20;2.00;;;8.10;1.00;;;;;;5072472;28;20470;-72
2021/03/19 13:30:29;;;;;;;2.70;1.97;;;8.50;1.00;;;;;;5082711;28;20421;-72
2021/03/19 13:32:55;;;;;;;3.10;2.50;;;;;;;;;;5070170;28;20468;-73
2021/03/19 13:35:30;;;;;;;2.67;2.20;;;8.90;1.00;;;;;;5072945;28;20826;-73
2021/03/19 13:37:56;;;;;;;2.63;2.33;;;8.90;1.00;;;;;;5072665;28;20764;-74
2021/03/19 13:40:24;;;;;;;5.80;2.60;;;9.10;1.00;;;;;;5069032;28;20943;-72
2021/03/19 13:42:50;;;;;;;4.00;2.10;;;;;;;;;;5052286;28;20426;-72
2021/03/19 13:45:16;;;;;;;3.73;2.00;;;8.50;1.00;;;;;;5054080;28;20418;-72
2021/03/19 13:47:42;;;;;;;2.50;2.23;;;;;;;;;;5069678;28;20422;-72
2021/03/19 13:50:08;;;;;;;2.27;2.07;;;7.90;1.00;;;;;;5066769;28;20450;-73
2021/03/19 13:52:34;;;;;;;3.33;2.70;;;7.80;1.00;;;;;;5062440;28;20560;-72
2021/03/19 13:55:00;;;;;;;4.33;2.97;;;;;;;;;;5068656;28;20512;-72
2021/03/19 13:57:29;;;;;;;4.63;2.40;;;7.50;1.00;;;;;;5060053;28;20201;-72
2021/03/19 13:59:55;;;;;;;3.13;2.50;;;7.30;1.00;;;;;;5061398;28;20421;-72
2021/03/19 14:02:22;;;;;;;3.83;2.60;;;;;;;;;;5076445;28;20408;-72